Time;durP1;ratioP1;P1;durP2;ratioP2;P2;SDS_P1;SDS_P2;PMS_P1;PMS_P2;Temp;Humidity;BMP_temperature;BMP_pressure;BME280_temperature;BME280_humidity;BME280_pressure;Samples;Min_cycle;Max_cycle;Signal;HPM_P1;HPM_P2
2022/09/14 00:00:55;;;;;;;4.13;1.25;;;20.30;78.10;;;;;;5066368;28;20045;-70
2022/09/14 00:03:21;;;;;;;2.22;1.30;;;20.20;78.40;;;;;;5066923;28;20021;-70
2022/09/14 00:05:46;;;;;;;3.53;1.45;;;20.20;78.30;;;;;;5063961;28;20039;-70
2022/09/14 00:08:13;;;;;;;4.13;1.40;;;20.20;78.90;;;;;;5070836;28;20032;-70
2022/09/14 00:10:43;;;;;;;4.53;1.75;;;20.20;78.30;;;;;;5056087;28;20112;-69
2022/09/14 00:13:10;;;;;;;7.25;1.50;;;20.10;78.40;;;;;;5070847;28;20091;-70
2022/09/14 00:15:37;;;;;;;2.50;1.48;;;20.10;78.40;;;;;;5074123;28;20476;-70
2022/09/14 00:18:04;;;;;;;9.63;1.70;;;20.10;78.80;;;;;;5072016;28;20078;-70
2022/09/14 00:20:30;;;;;;;4.25;2.10;;;20.00;78.90;;;;;;5061630;28;20128;-70
2022/09/14 00:22:56;;;;;;;5.65;1.58;;;20.00;79.00;;;;;;5054349;28;20480;-70
2022/09/14 00:25:22;;;;;;;3.70;1.55;;;19.90;78.90;;;;;;5066388;28;20032;-70
2022/09/14 00:27:48;;;;;;;7.22;1.52;;;19.90;79.10;;;;;;5062295;28;20031;-70
2022/09/14 00:30:14;;;;;;;4.07;1.73;;;19.90;78.80;;;;;;5075468;28;20019;-71
2022/09/14 00:32:39;;;;;;;7.78;1.73;;;19.90;78.70;;;;;;5079524;28;20033;-70
2022/09/14 00:35:05;;;;;;;7.68;1.77;;;19.80;78.70;;;;;;5080467;28;20024;-70
2022/09/14 00:37:31;;;;;;;7.65;1.80;;;19.80;78.60;;;;;;5066893;28;20024;-70
2022/09/14 00:39:57;;;;;;;4.38;1.67;;;19.80;78.70;;;;;;5079204;28;20072;-70
2022/09/14 00:42:22;;;;;;;3.85;1.45;;;19.80;78.70;;;;;;5067777;28;20040;-70
2022/09/14 00:44:51;;;;;;;6.22;1.60;;;19.80;78.70;;;;;;5061674;28;20056;-70
2022/09/14 00:47:17;;;;;;;5.55;1.70;;;19.80;78.80;;;;;;5074636;28;20157;-70
2022/09/14 00:49:44;;;;;;;9.77;2.58;;;19.70;78.80;;;;;;5058812;28;20033;-70
2022/09/14 00:52:25;;;;;;;6.18;1.98;;;19.70;79.10;;;;;;5064900;28;20434;-69
2022/09/14 00:54:54;;;;;;;7.38;1.88;;;19.60;79.20;;;;;;5070327;28;20033;-70
2022/09/14 00:57:21;;;;;;;4.95;1.70;;;19.70;79.20;;;;;;5065295;28;20365;-70
2022/09/14 00:59:49;;;;;;;6.05;1.80;;;19.60;79.20;;;;;;5070738;28;20090;-70
2022/09/14 01:02:19;;;;;;;6.63;2.00;;;19.60;79.40;;;;;;5070005;28;20047;-69
2022/09/14 01:04:46;;;;;;;7.00;1.60;;;19.60;80.00;;;;;;5067755;28;20376;-70
2022/09/14 01:07:24;;;;;;;4.28;1.60;;;19.60;79.60;;;;;;5071511;28;20103;-70
2022/09/14 01:10:24;;;;;;;4.25;1.60;;;19.60;79.90;;;;;;5070160;28;20020;-70
2022/09/14 01:13:08;;;;;;;5.75;1.67;;;19.50;79.70;;;;;;5067421;28;20467;-70
2022/09/14 01:15:42;;;;;;;10.38;1.70;;;19.50;79.80;;;;;;5056943;28;20115;-70
2022/09/14 01:18:28;;;;;;;9.15;2.38;;;19.50;80.00;;;;;;5067908;28;20036;-70
2022/09/14 01:21:18;;;;;;;10.13;1.85;;;19.50;80.10;;;;;;5064579;28;20033;-70
2022/09/14 01:24:13;;;;;;;3.78;1.58;;;19.50;80.10;;;;;;5065163;28;20533;-70
2022/09/14 01:26:57;;;;;;;7.22;1.88;;;19.40;80.20;;;;;;5064275;28;20552;-70
2022/09/14 01:29:30;;;;;;;4.75;1.92;;;19.40;80.20;;;;;;5059355;28;20032;-70
2022/09/14 01:32:14;;;;;;;5.90;1.65;;;19.40;80.40;;;;;;5058934;28;20387;-70
2022/09/14 01:35:19;;;;;;;8.60;2.20;;;19.40;80.50;;;;;;5070848;28;20036;-70
2022/09/14 01:38:04;;;;;;;4.20;1.90;;;19.40;80.50;;;;;;5065647;28;20048;-70
2022/09/14 01:40:35;;;;;;;3.17;1.60;;;19.40;80.70;;;;;;5068667;28;20079;-70
2022/09/14 01:43:12;;;;;;;4.63;1.98;;;19.40;80.90;;;;;;5070811;28;20028;-70
2022/09/14 01:45:46;;;;;;;11.40;2.00;;;19.30;81.10;;;;;;5067221;28;20028;-70
2022/09/14 01:48:14;;;;;;;4.03;1.60;;;19.40;81.40;;;;;;5064325;28;20036;-70
2022/09/14 01:50:49;;;;;;;7.32;1.88;;;19.40;81.50;;;;;;5065952;28;20036;-70
2022/09/14 01:53:39;;;;;;;2.70;1.40;;;19.30;81.60;;;;;;5071055;28;20415;-70
2022/09/14 01:56:30;;;;;;;4.05;1.67;;;19.30;81.60;;;;;;5064875;28;20028;-70
2022/09/14 01:59:09;;;;;;;3.80;2.25;;;19.30;81.40;;;;;;5057473;28;20047;-70
2022/09/14 02:01:39;;;;;;;3.60;1.60;;;19.30;81.40;;;;;;5069087;28;20036;-70
2022/09/14 02:04:10;;;;;;;3.08;1.70;;;19.30;81.40;;;;;;5081425;28;20065;-70
2022/09/14 02:06:42;;;;;;;3.15;1.80;;;19.30;81.50;;;;;;5073099;28;20040;-71
2022/09/14 02:09:12;;;;;;;12.07;2.58;;;19.20;81.60;;;;;;5071912;28;20028;-69
2022/09/14 02:11:38;;;;;;;6.32;1.80;;;19.30;81.80;;;;;;5082885;28;20028;-70
2022/09/14 02:14:04;;;;;;;3.45;1.80;;;19.30;81.60;;;;;;5057411;28;20436;-70
2022/09/14 02:16:30;;;;;;;11.90;1.90;;;19.20;81.60;;;;;;5081267;28;20063;-69
2022/09/14 02:18:58;;;;;;;8.45;2.28;;;19.20;81.60;;;;;;5081549;28;20484;-70
2022/09/14 02:21:29;;;;;;;3.97;1.90;;;19.20;81.70;;;;;;5064855;28;20047;-70
2022/09/14 02:23:57;;;;;;;4.95;2.00;;;19.20;81.80;;;;;;5051849;28;20136;-70
2022/09/14 02:26:23;;;;;;;6.40;1.83;;;19.30;81.80;;;;;;5052517;28;20041;-69
2022/09/14 02:28:54;;;;;;;5.30;2.03;;;19.20;81.70;;;;;;5064628;28;20443;-70
2022/09/14 02:31:43;;;;;;;4.28;2.72;;;19.20;81.80;;;;;;5071736;28;20032;-69
2022/09/14 02:34:33;;;;;;;10.07;1.75;;;19.20;82.10;;;;;;5081936;28;20044;-70
2022/09/14 02:37:07;;;;;;;4.60;1.90;;;19.20;82.10;;;;;;5079871;28;20532;-70
2022/09/14 02:39:55;;;;;;;8.63;2.10;;;19.20;82.40;;;;;;5058274;28;20064;-70
2022/09/14 02:42:26;;;;;;;5.82;2.20;;;19.20;82.60;;;;;;5059894;28;20064;-70
2022/09/14 02:45:10;;;;;;;7.70;2.40;;;19.20;82.70;;;;;;5055190;28;20024;-70
2022/09/14 02:47:54;;;;;;;6.82;2.38;;;19.20;82.70;;;;;;5070213;28;20037;-69
2022/09/14 02:50:28;;;;;;;5.85;1.77;;;19.10;82.60;;;;;;5060904;28;20391;-69
2022/09/14 02:53:00;;;;;;;5.10;2.00;;;19.10;82.50;;;;;;5069466;28;20032;-70
2022/09/14 02:55:33;;;;;;;5.82;1.60;;;19.10;82.30;;;;;;5069910;28;20028;-70
2022/09/14 02:58:10;;;;;;;5.35;1.48;;;19.10;82.50;;;;;;5071320;28;20029;-70
2022/09/14 03:00:39;;;;;;;3.63;1.80;;;19.10;82.90;;;;;;5070784;28;20049;-69
2022/09/14 03:03:06;;;;;;;7.25;1.75;;;19.10;82.80;;;;;;5064803;28;20025;-69
2022/09/14 03:05:32;;;;;;;10.23;2.63;;;19.10;82.80;;;;;;5064897;28;20128;-69
2022/09/14 03:07:59;;;;;;;4.85;1.65;;;19.10;82.90;;;;;;5079761;28;20421;-69
2022/09/14 03:10:25;;;;;;;6.65;1.92;;;19.00;82.90;;;;;;5072481;28;20033;-69
2022/09/14 03:12:51;;;;;;;5.82;1.88;;;19.00;83.10;;;;;;5059060;28;20441;-69
2022/09/14 03:15:17;;;;;;;7.60;1.75;;;19.00;83.20;;;;;;5063859;28;20067;-69
2022/09/14 03:17:49;;;;;;;3.92;1.52;;;19.00;83.10;;;;;;5051915;28;20040;-70
2022/09/14 03:20:20;;;;;;;5.90;1.52;;;19.00;83.10;;;;;;5063420;28;20025;-70
2022/09/14 03:22:47;;;;;;;5.90;1.85;;;19.00;83.00;;;;;;5051456;28;20441;-70
2022/09/14 03:25:13;;;;;;;3.67;1.58;;;19.00;82.90;;;;;;5066371;28;20025;-69
2022/09/14 03:27:39;;;;;;;6.70;1.85;;;19.00;83.00;;;;;;5062070;28;20030;-69
2022/09/14 03:30:05;;;;;;;4.97;1.60;;;19.00;83.10;;;;;;5070046;28;20368;-70
2022/09/14 03:32:32;;;;;;;8.85;1.85;;;19.00;83.30;;;;;;5060010;28;20464;-69
2022/09/14 03:34:58;;;;;;;7.80;1.70;;;18.90;83.40;;;;;;5063440;28;20384;-69
2022/09/14 03:37:25;;;;;;;4.55;1.60;;;19.00;83.50;;;;;;5051890;28;20029;-69
2022/09/14 03:39:50;;;;;;;5.43;1.92;;;19.00;83.50;;;;;;5055903;28;20055;-70
2022/09/14 03:42:16;;;;;;;3.38;1.40;;;18.90;83.60;;;;;;5069437;28;20040;-69
2022/09/14 03:44:42;;;;;;;12.95;1.88;;;19.00;83.60;;;;;;5055407;28;20027;-70
2022/09/14 03:47:10;;;;;;;7.70;1.60;;;18.90;83.50;;;;;;5071316;28;20040;-69
2022/09/14 03:49:39;;;;;;;7.93;1.90;;;19.00;83.90;;;;;;5052836;28;20491;-69
2022/09/14 03:52:04;;;;;;;4.25;1.60;;;19.00;84.00;;;;;;5063840;28;20484;-70
2022/09/14 03:54:30;;;;;;;4.55;1.98;;;19.00;84.10;;;;;;5071110;28;20082;-69
2022/09/14 03:56:55;;;;;;;19.48;2.00;;;19.00;84.30;;;;;;5062605;28;20037;-70
2022/09/14 03:59:21;;;;;;;7.90;1.90;;;19.00;84.10;;;;;;5067288;28;20036;-69
2022/09/14 04:01:47;;;;;;;6.53;1.95;;;19.10;83.90;;;;;;5065923;28;20040;-70
2022/09/14 04:04:12;;;;;;;4.55;2.05;;;19.00;83.80;;;;;;5072292;28;20024;-70
2022/09/14 04:06:38;;;;;;;3.17;1.50;;;18.90;83.80;;;;;;5073119;28;20031;-70
2022/09/14 04:09:04;;;;;;;9.60;3.22;;;19.00;83.80;;;;;;5086090;28;20387;-70
2022/09/14 04:11:30;;;;;;;9.82;2.03;;;19.00;83.90;;;;;;5072537;28;20090;-70
2022/09/14 04:14:00;;;;;;;6.55;2.30;;;19.00;84.00;;;;;;5067770;28;20032;-70
2022/09/14 04:16:27;;;;;;;4.50;1.60;;;19.00;84.20;;;;;;5067658;28;20032;-69
2022/09/14 04:18:53;;;;;;;6.13;2.05;;;19.00;84.30;;;;;;5073256;28;20029;-70
2022/09/14 04:21:22;;;;;;;3.92;1.50;;;18.90;84.30;;;;;;5063099;28;20033;-70
2022/09/14 04:23:51;;;;;;;7.45;1.55;;;18.90;84.50;;;;;;5065857;28;20033;-69
2022/09/14 04:26:19;;;;;;;6.20;1.80;;;18.90;84.60;;;;;;5068872;28;20107;-71
2022/09/14 04:28:45;;;;;;;7.18;2.10;;;18.90;84.70;;;;;;5073811;28;20391;-70
2022/09/14 04:31:11;;;;;;;9.70;2.58;;;18.90;84.80;;;;;;5071667;28;20036;-69
2022/09/14 04:33:39;;;;;;;7.32;2.10;;;19.00;85.10;;;;;;5074132;28;20024;-71
2022/09/14 04:36:10;;;;;;;10.60;2.40;;;19.00;85.30;;;;;;5068864;28;20024;-71
2022/09/14 04:38:38;;;;;;;4.20;2.00;;;19.00;85.40;;;;;;5072536;28;20048;-71
2022/09/14 04:41:09;;;;;;;4.78;2.03;;;19.00;85.10;;;;;;5072188;28;20032;-70
2022/09/14 04:43:35;;;;;;;4.53;2.00;;;18.90;84.90;;;;;;5058125;28;20028;-69
2022/09/14 04:46:25;;;;;;;11.23;3.90;;;19.00;84.40;;;;;;5060916;28;20052;-70
2022/09/14 04:48:51;;;;;;;8.00;2.40;;;19.00;84.60;;;;;;5066592;28;20032;-71
2022/09/14 04:51:23;;;;;;;7.43;2.60;;;18.90;84.10;;;;;;5064633;28;20016;-68
2022/09/14 04:53:51;;;;;;;3.08;1.83;;;18.90;84.60;;;;;;5069004;28;20498;-68
2022/09/14 04:56:19;;;;;;;4.38;2.10;;;18.90;84.30;;;;;;5073059;28;20131;-68
2022/09/14 04:58:48;;;;;;;5.68;2.20;;;18.90;84.20;;;;;;5070763;28;20112;-69
2022/09/14 05:01:16;;;;;;;5.22;2.33;;;18.80;84.10;;;;;;5067298;28;20082;-69
2022/09/14 05:03:42;;;;;;;6.30;1.90;;;18.80;84.00;;;;;;5066739;28;20043;-69
2022/09/14 05:06:12;;;;;;;6.32;2.35;;;18.80;84.10;;;;;;5062021;28;20083;-69
2022/09/14 05:08:38;;;;;;;9.75;2.10;;;18.80;84.40;;;;;;5080211;28;20120;-70
2022/09/14 05:11:06;;;;;;;7.10;1.95;;;18.70;84.30;;;;;;5063793;28;20485;-68
2022/09/14 05:13:32;;;;;;;9.00;2.10;;;18.80;84.40;;;;;;5071298;28;20463;-70
2022/09/14 05:16:10;;;;;;;8.48;2.45;;;18.80;84.60;;;;;;5070086;28;20437;-69
2022/09/14 05:18:36;;;;;;;10.07;2.85;;;18.80;85.00;;;;;;5066346;28;20036;-68
2022/09/14 05:21:10;;;;;;;6.10;2.42;;;18.80;84.90;;;;;;5071222;28;20035;-70
2022/09/14 05:23:36;;;;;;;4.60;1.90;;;18.80;85.30;;;;;;5068913;28;20033;-70
2022/09/14 05:26:03;;;;;;;5.30;1.90;;;18.80;85.00;;;;;;5060189;28;20139;-69
2022/09/14 05:28:30;;;;;;;7.50;2.08;;;18.80;84.90;;;;;;5067182;28;20357;-69
2022/09/14 05:30:55;;;;;;;8.00;2.33;;;18.70;84.60;;;;;;5065214;28;20037;-69
2022/09/14 05:33:21;;;;;;;12.00;2.40;;;18.80;84.60;;;;;;5066147;28;20032;-69
2022/09/14 05:35:48;;;;;;;5.70;2.33;;;18.70;84.80;;;;;;5067271;28;20035;-68
2022/09/14 05:38:15;;;;;;;5.35;2.38;;;18.80;85.30;;;;;;5067772;28;20479;-68
2022/09/14 05:40:41;;;;;;;8.80;2.80;;;18.70;85.50;;;;;;5067102;28;20060;-69
2022/09/14 05:43:07;;;;;;;7.53;2.72;;;18.80;85.70;;;;;;5062155;28;20031;-68
2022/09/14 05:45:33;;;;;;;7.38;2.45;;;18.70;85.70;;;;;;5053384;28;20036;-67
2022/09/14 05:48:05;;;;;;;6.13;2.33;;;18.70;85.90;;;;;;5069723;28;20024;-68
2022/09/14 05:50:32;;;;;;;3.75;2.10;;;18.80;86.30;;;;;;5066327;28;20488;-68
2022/09/14 05:52:57;;;;;;;6.75;2.13;;;18.80;86.40;;;;;;5067477;28;20537;-68
2022/09/14 05:55:23;;;;;;;5.47;2.60;;;18.70;86.20;;;;;;5064738;28;20037;-68
2022/09/14 05:57:50;;;;;;;6.28;1.83;;;18.80;86.20;;;;;;5069234;28;20395;-68
2022/09/14 06:00:16;;;;;;;7.03;2.30;;;18.80;86.20;;;;;;5060712;28;20064;-68
2022/09/14 06:02:49;;;;;;;9.75;2.03;;;18.80;86.20;;;;;;5064005;28;20036;-68
2022/09/14 06:05:16;;;;;;;9.48;1.90;;;18.80;86.30;;;;;;5066968;28;20025;-68
2022/09/14 06:07:42;;;;;;;3.47;1.90;;;18.80;86.10;;;;;;5066637;28;20101;-69
2022/09/14 06:10:09;;;;;;;3.42;1.88;;;18.80;85.80;;;;;;5061170;28;20043;-69
2022/09/14 06:12:34;;;;;;;4.93;1.98;;;18.80;85.90;;;;;;5063892;28;20059;-68
2022/09/14 06:15:00;;;;;;;2.28;1.80;;;18.80;86.20;;;;;;5060686;28;20068;-68
2022/09/14 06:17:28;;;;;;;4.03;1.85;;;18.80;86.40;;;;;;5063447;28;20059;-69
2022/09/14 06:19:54;;;;;;;6.35;2.00;;;18.80;85.90;;;;;;5053163;28;20029;-69
2022/09/14 06:22:20;;;;;;;9.52;2.08;;;18.80;85.70;;;;;;5070966;28;20052;-68
2022/09/14 06:24:46;;;;;;;7.63;1.90;;;18.80;85.60;;;;;;5068377;28;20077;-69
2022/09/14 06:27:12;;;;;;;4.93;1.90;;;18.70;85.60;;;;;;5060954;28;20020;-69
2022/09/14 06:29:37;;;;;;;13.25;2.55;;;18.80;85.70;;;;;;5057897;28;20669;-68
2022/09/14 06:32:04;;;;;;;7.40;2.30;;;18.70;85.80;;;;;;5062462;28;20105;-69
2022/09/14 06:34:29;;;;;;;7.50;2.58;;;18.80;86.00;;;;;;5063155;28;20032;-69
2022/09/14 06:36:56;;;;;;;13.30;1.90;;;18.70;86.00;;;;;;5049580;28;20032;-68
2022/09/14 06:39:21;;;;;;;9.57;2.00;;;18.70;85.90;;;;;;5064302;28;20052;-68
2022/09/14 06:41:47;;;;;;;3.35;1.70;;;18.70;86.10;;;;;;5071456;28;20121;-67
2022/09/14 06:44:18;;;;;;;10.20;1.92;;;18.80;85.80;;;;;;5038888;28;20024;-70
2022/09/14 06:46:44;;;;;;;4.97;1.60;;;18.70;86.00;;;;;;5070947;28;20028;-68
2022/09/14 06:49:12;;;;;;;7.50;1.75;;;18.80;86.10;;;;;;5069418;28;20162;-70
2022/09/14 06:51:43;;;;;;;9.73;2.10;;;18.80;86.60;;;;;;5071537;28;20028;-67
2022/09/14 06:54:10;;;;;;;9.18;1.80;;;18.80;87.20;;;;;;5066177;28;20035;-68
2022/09/14 06:56:38;;;;;;;7.55;1.70;;;18.80;87.00;;;;;;5061411;28;20484;-68
2022/09/14 06:59:05;;;;;;;5.13;1.80;;;18.90;87.10;;;;;;5054996;28;20472;-70
2022/09/14 07:01:31;;;;;;;6.30;2.13;;;18.90;86.80;;;;;;5063185;28;20129;-68
2022/09/14 07:03:59;;;;;;;5.45;1.80;;;19.00;86.70;;;;;;5058602;28;20051;-68
2022/09/14 07:06:27;;;;;;;6.30;1.75;;;18.90;86.70;;;;;;5059419;28;20119;-68
2022/09/14 07:08:54;;;;;;;8.68;2.03;;;18.90;86.40;;;;;;5066407;28;20032;-68
2022/09/14 07:11:22;;;;;;;6.82;1.58;;;18.90;86.40;;;;;;5062274;28;20042;-68
2022/09/14 07:13:48;;;;;;;7.53;1.75;;;19.00;86.40;;;;;;5069248;28;20033;-70
2022/09/14 07:16:14;;;;;;;9.10;2.28;;;19.00;86.60;;;;;;5070951;28;20036;-68
2022/09/14 07:18:40;;;;;;;6.97;1.77;;;19.00;86.80;;;;;;5057561;28;20044;-69
2022/09/14 07:21:12;;;;;;;5.40;1.80;;;19.00;86.80;;;;;;5058960;28;20095;-70
2022/09/14 07:23:39;;;;;;;11.60;2.10;;;19.10;87.20;;;;;;5051912;28;20117;-69
2022/09/14 07:26:14;;;;;;;5.95;1.67;;;19.10;86.90;;;;;;5064263;28;20039;-69
2022/09/14 07:28:42;;;;;;;5.07;1.65;;;19.10;86.90;;;;;;5052452;28;20043;-69
2022/09/14 07:31:23;;;;;;;11.77;1.63;;;19.10;86.40;;;;;;5055916;28;20025;-69
2022/09/14 07:33:56;;;;;;;6.22;2.05;;;19.20;87.10;;;;;;5063999;28;20091;-69
2022/09/14 07:36:23;;;;;;;8.10;1.70;;;19.20;87.20;;;;;;5072720;28;20050;-69
2022/09/14 07:38:49;;;;;;;5.78;1.73;;;19.20;87.50;;;;;;5063321;28;20107;-69
2022/09/14 07:41:15;;;;;;;7.18;1.85;;;19.20;87.50;;;;;;5071690;28;20041;-69
2022/09/14 07:43:41;;;;;;;8.23;1.67;;;19.30;87.80;;;;;;5063767;28;20040;-69
2022/09/14 07:46:07;;;;;;;10.70;2.10;;;19.40;87.80;;;;;;5068166;28;20029;-69
2022/09/14 07:48:34;;;;;;;8.80;1.73;;;19.40;87.80;;;;;;5055865;28;20067;-69
2022/09/14 07:51:09;;;;;;;3.85;2.17;;;19.40;88.30;;;;;;5055371;28;20036;-69
2022/09/14 07:53:39;;;;;;;7.88;1.90;;;19.50;88.70;;;;;;5067219;28;20040;-70
2022/09/14 07:56:09;;;;;;;5.32;1.70;;;19.50;88.60;;;;;;5073661;28;20024;-71
2022/09/14 07:58:35;;;;;;;6.45;1.63;;;19.60;88.70;;;;;;5075025;28;20373;-69
2022/09/14 08:01:04;;;;;;;6.65;1.92;;;19.60;88.90;;;;;;5055496;28;20040;-69
2022/09/14 08:03:30;;;;;;;12.60;1.63;;;19.70;88.90;;;;;;5054733;28;20048;-69
2022/09/14 08:06:04;;;;;;;6.55;1.27;;;19.70;88.50;;;;;;5054297;28;20491;-71
2022/09/14 08:08:35;;;;;;;4.65;1.70;;;19.80;88.50;;;;;;5080449;28;20065;-69
2022/09/14 08:11:16;;;;;;;4.38;1.05;;;19.80;88.20;;;;;;5074612;28;20158;-70
2022/09/14 08:13:45;;;;;;;6.53;1.40;;;19.80;87.60;;;;;;5060631;28;20040;-70
2022/09/14 08:16:12;;;;;;;10.50;1.23;;;19.90;87.00;;;;;;5061893;28;20041;-70
2022/09/14 08:18:38;;;;;;;5.65;1.17;;;19.90;86.00;;;;;;5072508;28;20111;-69
2022/09/14 08:21:09;;;;;;;10.88;1.35;;;19.90;84.70;;;;;;5074364;28;20079;-70
2022/09/14 08:23:36;;;;;;;6.75;1.40;;;19.90;84.60;;;;;;5072745;28;20040;-70
2022/09/14 08:26:10;;;;;;;9.27;1.35;;;19.90;84.20;;;;;;5071086;28;20043;-69
2022/09/14 08:28:37;;;;;;;7.57;1.67;;;20.00;83.00;;;;;;5062432;28;20040;-70
2022/09/14 08:31:11;;;;;;;5.43;1.25;;;20.00;82.90;;;;;;5059532;28;20124;-70
2022/09/14 08:33:39;;;;;;;8.32;1.63;;;20.00;82.30;;;;;;5073088;28;20385;-70
2022/09/14 08:36:10;;;;;;;7.00;1.52;;;20.10;82.20;;;;;;5071769;28;20033;-70
2022/09/14 08:38:36;;;;;;;13.13;1.90;;;20.10;81.60;;;;;;5069628;28;20049;-70
2022/09/14 08:41:23;;;;;;;11.18;1.55;;;20.10;81.20;;;;;;5067039;28;20120;-69
2022/09/14 08:43:49;;;;;;;6.05;1.30;;;20.20;80.80;;;;;;5071370;28;20040;-71
2022/09/14 08:46:23;;;;;;;11.27;1.13;;;20.20;80.80;;;;;;5067206;28;20040;-70
2022/09/14 08:48:48;;;;;;;5.32;1.13;;;20.30;81.00;;;;;;5062220;28;20420;-73
2022/09/14 08:51:15;;;;;;;6.30;1.02;;;20.40;80.90;;;;;;5063924;28;20114;-70
2022/09/14 08:53:42;;;;;;;9.10;1.83;;;20.40;79.90;;;;;;5064523;28;20496;-71
2022/09/14 08:56:12;;;;;;;3.05;1.17;;;20.50;79.50;;;;;;5057919;28;20049;-69
2022/09/14 08:58:55;;;;;;;5.45;0.98;;;20.60;79.20;;;;;;5064996;28;20048;-70
2022/09/14 09:01:32;;;;;;;13.77;1.23;;;20.70;78.70;;;;;;5061205;28;20085;-70
2022/09/14 09:04:22;;;;;;;4.60;1.40;;;20.70;78.60;;;;;;5059348;28;20115;-70
2022/09/14 09:06:53;;;;;;;6.60;1.40;;;20.80;78.40;;;;;;5062204;28;20037;-70
2022/09/14 09:09:23;;;;;;;8.98;1.35;;;20.80;78.10;;;;;;5084498;28;20036;-70
2022/09/14 09:11:51;;;;;;;4.78;1.00;;;20.80;77.70;;;;;;5071725;28;20059;-70
2022/09/14 09:14:22;;;;;;;5.47;1.17;;;20.80;77.70;;;;;;5073408;28;20058;-70
2022/09/14 09:16:51;;;;;;;5.88;1.25;;;20.90;77.50;;;;;;5055906;28;20384;-70
2022/09/14 09:19:23;;;;;;;4.40;1.20;;;20.80;77.50;;;;;;5063160;28;20040;-71
2022/09/14 09:21:50;;;;;;;7.05;2.00;;;20.90;77.40;;;;;;5065992;28;20037;-71
2022/09/14 09:24:21;;;;;;;13.15;1.58;;;20.90;78.10;;;;;;5065574;28;20032;-71
2022/09/14 09:26:47;;;;;;;5.90;1.27;;;20.90;77.00;;;;;;5058889;28;20037;-71
2022/09/14 09:29:13;;;;;;;4.70;1.00;;;20.90;77.00;;;;;;5072743;28;20029;-71
2022/09/14 09:31:58;;;;;;;6.18;1.08;;;20.90;76.70;;;;;;5061714;28;20444;-70
2022/09/14 09:34:47;;;;;;;9.30;1.65;;;20.90;76.40;;;;;;5050831;28;20499;-71
2022/09/14 09:37:37;;;;;;;11.07;1.27;;;20.90;76.40;;;;;;5055704;28;20043;-70
2022/09/14 09:40:22;;;;;;;6.45;1.05;;;20.90;76.40;;;;;;5070557;28;20057;-70
2022/09/14 09:43:05;;;;;;;5.10;1.08;;;20.90;76.20;;;;;;5066782;28;20072;-71
2022/09/14 09:45:54;;;;;;;8.63;1.15;;;20.90;76.20;;;;;;5051988;28;20030;-72
2022/09/14 09:48:29;;;;;;;4.03;1.20;;;21.00;76.10;;;;;;5063086;28;20024;-70
2022/09/14 09:51:08;;;;;;;4.70;1.27;;;21.00;76.50;;;;;;5070587;28;20111;-71
2022/09/14 09:53:37;;;;;;;5.53;1.30;;;21.10;75.60;;;;;;5070988;28;20476;-71
2022/09/14 09:56:04;;;;;;;10.02;1.20;;;21.00;75.50;;;;;;5053488;28;20123;-70
2022/09/14 09:58:35;;;;;;;2.22;1.00;;;21.10;75.30;;;;;;5066614;28;20104;-70
2022/09/14 10:01:16;;;;;;;9.18;2.75;;;21.10;75.50;;;;;;5068506;28;20598;-71
2022/09/14 10:03:42;;;;;;;7.35;1.15;;;21.20;75.20;;;;;;5071032;28;20033;-70
2022/09/14 10:06:10;;;;;;;8.93;1.30;;;21.20;75.10;;;;;;5070765;28;20361;-70
2022/09/14 10:08:42;;;;;;;4.32;1.38;;;21.20;75.30;;;;;;5070128;28;20032;-71
2022/09/14 10:11:29;;;;;;;5.80;1.30;;;21.30;75.50;;;;;;5052014;28;20037;-70
2022/09/14 10:13:56;;;;;;;9.88;1.60;;;21.40;75.70;;;;;;5065775;28;20111;-70
2022/09/14 10:16:24;;;;;;;6.78;1.33;;;21.40;75.10;;;;;;5071277;28;20044;-70
2022/09/14 10:18:51;;;;;;;7.43;1.20;;;21.40;75.40;;;;;;5057314;28;20365;-70
2022/09/14 10:21:23;;;;;;;5.45;1.25;;;21.40;75.50;;;;;;5069519;28;20051;-70
2022/09/14 10:24:16;;;;;;;10.25;2.40;;;21.40;75.40;;;;;;5056802;28;20064;-70
2022/09/14 10:26:42;;;;;;;9.20;1.10;;;21.40;75.40;;;;;;5070207;28;20043;-70
2022/09/14 10:29:29;;;;;;;9.30;1.52;;;21.50;75.20;;;;;;5057073;28;20043;-71
2022/09/14 10:32:17;;;;;;;2.05;0.98;;;21.50;75.20;;;;;;5069877;28;20445;-70
2022/09/14 10:34:43;;;;;;;5.63;1.08;;;21.50;75.00;;;;;;5058222;28;20039;-70
2022/09/14 10:37:36;;;;;;;3.75;1.10;;;21.50;74.70;;;;;;5058691;28;20373;-71
2022/09/14 10:40:17;;;;;;;9.43;1.60;;;21.50;74.70;;;;;;5062478;28;20037;-70
2022/09/14 10:43:13;;;;;;;4.10;1.30;;;21.50;74.90;;;;;;5059862;28;20037;-70
2022/09/14 10:45:49;;;;;;;3.25;1.33;;;21.50;75.90;;;;;;5050480;28;20446;-71
2022/09/14 10:48:14;;;;;;;3.63;1.23;;;21.50;75.20;;;;;;5064232;28;20076;-69
2022/09/14 10:51:18;;;;;;;9.95;1.55;;;21.50;75.40;;;;;;5062655;28;20063;-71
2022/09/14 10:54:07;;;;;;;7.35;1.10;;;21.60;75.60;;;;;;5067693;28;20024;-71
2022/09/14 10:56:42;;;;;;;10.48;1.63;;;21.60;75.10;;;;;;5069724;28;20029;-70
2022/09/14 10:59:21;;;;;;;4.95;1.42;;;21.60;75.00;;;;;;5067484;28;20040;-70
2022/09/14 11:02:03;;;;;;;10.38;1.20;;;21.60;75.10;;;;;;5071365;28;20109;-71
2022/09/14 11:04:58;;;;;;;6.05;1.35;;;21.60;75.70;;;;;;5066999;28;20060;-71
2022/09/14 11:08:08;;;;;;;4.18;1.00;;;21.60;75.00;;;;;;5065504;28;20093;-71
2022/09/14 11:10:49;;;;;;;8.10;2.08;;;21.60;74.60;;;;;;5030153;28;20093;-70
2022/09/14 11:13:38;;;;;;;7.55;1.30;;;21.70;74.10;;;;;;5058559;28;20534;-70
2022/09/14 11:16:13;;;;;;;6.55;1.17;;;21.60;74.30;;;;;;5066854;28;20029;-70
2022/09/14 11:18:52;;;;;;;5.22;1.88;;;21.70;74.30;;;;;;5063574;28;20021;-69
2022/09/14 11:21:28;;;;;;;3.30;0.98;;;21.70;74.00;;;;;;5065991;28;20052;-70
2022/09/14 11:23:55;;;;;;;7.90;1.00;;;21.70;73.80;;;;;;5070739;28;20082;-72
2022/09/14 11:26:35;;;;;;;2.65;0.93;;;21.80;74.00;;;;;;5063767;28;20028;-72
2022/09/14 11:29:31;;;;;;;3.15;0.93;;;21.80;74.10;;;;;;5064166;28;20060;-72
2022/09/14 11:32:12;;;;;;;10.18;1.20;;;21.80;75.50;;;;;;5060706;28;20429;-71
2022/09/14 11:35:00;;;;;;;13.25;1.27;;;21.90;76.20;;;;;;5069460;28;20024;-72
2022/09/14 11:37:46;;;;;;;9.82;1.60;;;21.90;75.80;;;;;;5023554;28;20115;-71
2022/09/14 11:40:33;;;;;;;7.13;1.25;;;21.90;75.40;;;;;;5059640;28;20443;-72
2022/09/14 11:43:04;;;;;;;4.78;1.10;;;21.90;75.40;;;;;;5056910;28;20033;-72
2022/09/14 11:45:44;;;;;;;7.85;1.02;;;22.00;74.90;;;;;;5059574;28;20053;-72
2022/09/14 11:48:09;;;;;;;6.30;1.15;;;21.90;74.50;;;;;;5063612;28;20036;-72
2022/09/14 11:50:37;;;;;;;5.57;1.13;;;22.00;74.00;;;;;;5061652;28;20107;-73
2022/09/14 11:53:10;;;;;;;12.55;2.03;;;22.00;73.90;;;;;;5060812;28;20044;-72
2022/09/14 11:55:40;;;;;;;4.45;1.50;;;22.10;74.40;;;;;;5059089;28;20028;-72
2022/09/14 11:58:13;;;;;;;6.03;1.40;;;22.10;74.20;;;;;;5059278;28;20033;-72
2022/09/14 12:00:46;;;;;;;6.88;1.50;;;22.20;74.80;;;;;;5064112;28;20387;-73
2022/09/14 12:03:16;;;;;;;7.25;1.60;;;22.20;74.30;;;;;;5070951;28;20028;-72
2022/09/14 12:05:43;;;;;;;10.52;1.42;;;22.30;74.20;;;;;;5069174;28;20044;-73
2022/09/14 12:08:35;;;;;;;6.57;1.25;;;22.30;73.50;;;;;;5081351;28;20402;-72
2022/09/14 12:11:09;;;;;;;4.18;1.10;;;22.30;73.60;;;;;;5060775;28;20039;-71
2022/09/14 12:13:37;;;;;;;4.60;1.00;;;22.30;72.80;;;;;;5066256;28;20022;-73
2022/09/14 12:16:06;;;;;;;5.32;1.25;;;22.40;73.60;;;;;;5062017;28;20037;-73
2022/09/14 12:18:35;;;;;;;3.58;1.20;;;22.40;73.50;;;;;;5073630;28;20032;-73
2022/09/14 12:21:21;;;;;;;2.80;1.10;;;22.40;73.00;;;;;;5068027;28;20029;-72
2022/09/14 12:23:52;;;;;;;5.60;1.40;;;22.50;72.90;;;;;;5065661;28;20054;-74
2022/09/14 12:26:17;;;;;;;5.32;1.35;;;22.50;73.60;;;;;;5071358;28;20037;-73
2022/09/14 12:28:49;;;;;;;5.57;1.25;;;22.60;73.80;;;;;;5064677;28;20479;-73
2022/09/14 12:31:36;;;;;;;3.05;1.02;;;22.60;74.00;;;;;;5062611;28;20035;-73
2022/09/14 12:34:26;;;;;;;8.48;1.20;;;22.60;74.70;;;;;;5069597;28;20036;-73
2022/09/14 12:36:52;;;;;;;3.40;0.90;;;22.60;74.90;;;;;;5071684;28;20037;-72
2022/09/14 12:39:32;;;;;;;7.35;1.63;;;22.70;75.10;;;;;;5072316;28;20040;-73
2022/09/14 12:42:03;;;;;;;4.97;1.33;;;22.60;74.40;;;;;;5072616;28;20123;-73
2022/09/14 12:44:30;;;;;;;7.47;1.40;;;22.60;74.70;;;;;;5065411;28;20040;-72
2022/09/14 12:46:55;;;;;;;6.07;1.10;;;22.60;75.10;;;;;;5067186;28;20502;-72
2022/09/14 12:49:30;;;;;;;3.95;1.35;;;22.60;75.20;;;;;;5069830;28;20032;-72
2022/09/14 12:52:01;;;;;;;2.90;0.95;;;22.60;75.10;;;;;;5065062;28;20047;-72
2022/09/14 12:54:47;;;;;;;5.05;1.25;;;22.60;75.00;;;;;;5068740;28;20480;-72
2022/09/14 12:57:18;;;;;;;3.20;0.93;;;22.60;74.20;;;;;;5066733;28;20111;-72
2022/09/14 12:59:59;;;;;;;7.30;1.13;;;22.60;75.00;;;;;;5071515;28;20353;-72
2022/09/14 13:02:49;;;;;;;9.40;1.45;;;22.60;75.00;;;;;;5067364;28;20062;-72
2022/09/14 13:05:22;;;;;;;4.85;1.10;;;22.60;75.30;;;;;;5066004;28;20032;-72
2022/09/14 13:07:48;;;;;;;10.18;1.48;;;22.60;75.30;;;;;;5065711;28;20476;-72
2022/09/14 13:10:36;;;;;;;13.00;1.27;;;22.60;74.80;;;;;;5066692;28;20122;-72